createdAt,value
2017-05-03T00:00:35.898Z,10.28
2017-05-03T00:03:03.158Z,8.34
2017-05-03T00:05:30.407Z,8.94
2017-05-03T00:07:57.695Z,8.38
2017-05-03T00:10:25.675Z,8.40
2017-05-03T00:12:52.970Z,7.72
2017-05-03T00:15:20.339Z,9.24
2017-05-03T00:17:47.632Z,8.40
2017-05-03T00:20:14.932Z,8.34
2017-05-03T00:22:42.255Z,10.58
2017-05-03T00:25:09.531Z,8.40
2017-05-03T00:27:37.649Z,8.30
2017-05-03T00:30:04.944Z,8.30
2017-05-03T00:32:32.212Z,9.28
2017-05-03T00:35:00.275Z,9.54
2017-05-03T00:37:27.531Z,9.30
2017-05-03T00:39:54.777Z,8.38
2017-05-03T00:42:22.213Z,12.44
2017-05-03T00:44:49.501Z,8.06
2017-05-03T00:47:16.793Z,8.48
2017-05-03T00:49:44.840Z,9.70
2017-05-03T00:52:12.196Z,9.08
2017-05-03T00:54:39.460Z,9.70
2017-05-03T00:57:06.721Z,8.80
2017-05-03T00:59:34.039Z,8.36
2017-05-03T01:02:01.340Z,8.88
2017-05-03T01:04:28.625Z,9.96
2017-05-03T01:06:55.884Z,10.28
2017-05-03T01:09:23.309Z,8.74
2017-05-03T01:11:50.615Z,9.04
2017-05-03T01:14:17.961Z,9.77
2017-05-03T01:16:45.239Z,10.52
2017-05-03T01:19:12.520Z,9.14
2017-05-03T01:21:39.791Z,11.50
2017-05-03T01:24:07.126Z,9.42
2017-05-03T01:26:34.389Z,9.10
2017-05-03T01:29:01.661Z,12.52
2017-05-03T01:31:28.952Z,9.64
2017-05-03T01:33:57.077Z,11.10
2017-05-03T01:36:24.319Z,10.88
2017-05-03T01:38:51.593Z,10.90
2017-05-03T01:41:18.864Z,8.94
2017-05-03T01:43:46.130Z,8.52
2017-05-03T01:46:20.443Z,10.17
2017-05-03T01:48:47.765Z,10.70
2017-05-03T01:51:15.064Z,10.44
2017-05-03T01:53:42.388Z,10.80
2017-05-03T01:56:09.711Z,9.84
2017-05-03T01:58:37.949Z,10.33
2017-05-03T02:01:05.264Z,11.50
2017-05-03T02:03:33.417Z,10.42
2017-05-03T02:06:00.731Z,10.58
2017-05-03T02:08:28.005Z,9.18
2017-05-03T02:10:55.371Z,8.34
2017-05-03T02:13:22.652Z,9.40
2017-05-03T02:15:49.979Z,8.90
2017-05-03T02:18:17.353Z,11.58
2017-05-03T02:20:44.688Z,10.84
2017-05-03T02:23:12.009Z,11.30
2017-05-03T02:25:40.379Z,9.92
2017-05-03T02:28:07.675Z,10.00
2017-05-03T02:30:34.967Z,12.00
2017-05-03T02:33:02.236Z,10.90
2017-05-03T02:35:29.655Z,10.74
2017-05-03T02:37:56.940Z,9.26
2017-05-03T02:40:24.232Z,9.54
2017-05-03T02:42:51.664Z,9.74
2017-05-03T02:45:18.948Z,8.12
2017-05-03T02:47:46.235Z,10.78
2017-05-03T02:50:14.211Z,9.76
2017-05-03T02:52:42.234Z,10.50
2017-05-03T02:55:09.483Z,10.60
2017-05-03T02:57:36.901Z,10.44
2017-05-03T03:00:05.160Z,10.26
2017-05-03T03:02:32.464Z,12.12
2017-05-03T03:04:59.757Z,14.58
2017-05-03T03:07:27.056Z,11.03
2017-05-03T03:09:54.314Z,13.93
2017-05-03T03:12:22.313Z,13.28
2017-05-03T03:14:49.593Z,12.22
2017-05-03T03:17:23.943Z,12.08
2017-05-03T03:19:51.996Z,12.88
2017-05-03T03:22:19.436Z,13.16
2017-05-03T03:24:46.729Z,12.58
2017-05-03T03:27:14.042Z,12.98
2017-05-03T03:29:41.328Z,14.02
2017-05-03T03:32:08.563Z,13.94
2017-05-03T03:34:35.812Z,15.72
2017-05-03T03:37:03.096Z,14.28
2017-05-03T03:39:30.383Z,13.38
2017-05-03T03:41:57.852Z,15.08
2017-05-03T03:44:25.260Z,14.84
2017-05-03T03:46:59.651Z,15.20
2017-05-03T03:49:27.760Z,14.50
2017-05-03T03:51:55.076Z,16.46
2017-05-03T03:54:22.325Z,15.20
2017-05-03T03:56:49.630Z,15.10
2017-05-03T03:59:16.884Z,14.66
2017-05-03T04:01:44.157Z,13.98
2017-05-03T04:04:11.415Z,16.18
2017-05-03T04:06:38.680Z,15.80
2017-05-03T04:09:05.951Z,16.38
2017-05-03T04:11:33.211Z,17.46
2017-05-03T04:14:00.472Z,16.62
2017-05-03T04:16:27.711Z,16.40
2017-05-03T04:18:54.992Z,17.20
2017-05-03T04:21:22.285Z,19.00
2017-05-03T04:23:50.383Z,19.42
2017-05-03T04:26:17.695Z,19.18
2017-05-03T04:28:44.987Z,19.20
2017-05-03T04:31:12.300Z,19.54
2017-05-03T04:33:39.561Z,17.72
2017-05-03T04:36:06.833Z,19.80
2017-05-03T04:38:34.128Z,19.54
2017-05-03T04:41:01.391Z,21.88
2017-05-03T04:43:28.726Z,20.78
2017-05-03T04:45:56.753Z,19.18
2017-05-03T04:48:24.037Z,18.66
2017-05-03T04:50:51.296Z,20.36
2017-05-03T04:53:18.723Z,21.28
2017-05-03T04:55:45.984Z,20.70
2017-05-03T04:58:13.259Z,21.02
2017-05-03T05:00:40.564Z,19.82
2017-05-03T05:03:14.695Z,23.34
2017-05-03T05:05:42.016Z,20.50
2017-05-03T05:08:09.399Z,20.50
2017-05-03T05:10:36.656Z,20.24
2017-05-03T05:13:03.934Z,19.26
2017-05-03T05:15:31.221Z,17.50
2017-05-03T05:17:58.489Z,17.00
2017-05-03T05:20:25.789Z,17.58
2017-05-03T05:22:53.151Z,17.96
2017-05-03T05:25:20.416Z,16.92
2017-05-03T05:27:47.679Z,17.92
2017-05-03T05:30:14.991Z,18.44
2017-05-03T05:32:42.277Z,18.22
2017-05-03T05:35:10.337Z,20.44
2017-05-03T05:37:37.594Z,22.82
2017-05-03T05:40:04.828Z,19.38
2017-05-03T05:42:32.072Z,21.40
2017-05-03T05:44:59.780Z,18.28
2017-05-03T05:47:27.795Z,17.16
2017-05-03T05:49:55.216Z,16.06
2017-05-03T05:52:22.524Z,18.24
2017-05-03T05:54:50.004Z,20.78
2017-05-03T05:57:17.421Z,18.40
2017-05-03T05:59:44.692Z,16.96
2017-05-03T06:02:11.991Z,16.26
2017-05-03T06:04:39.316Z,13.34
2017-05-03T06:07:06.587Z,13.70
2017-05-03T06:09:33.864Z,13.98
2017-05-03T06:12:01.157Z,14.28
2017-05-03T06:14:29.149Z,14.84
2017-05-03T06:16:56.416Z,14.34
2017-05-03T06:19:23.700Z,14.04
2017-05-03T06:21:51.004Z,15.08
2017-05-03T06:24:19.129Z,13.18
2017-05-03T06:26:46.388Z,13.12
2017-05-03T06:29:13.710Z,15.80
2017-05-03T06:31:41.684Z,14.38
2017-05-03T06:34:09.677Z,13.38
2017-05-03T06:36:37.080Z,12.82
2017-05-03T06:39:04.346Z,11.94
2017-05-03T06:41:31.645Z,12.94
2017-05-03T06:43:58.924Z,12.40
2017-05-03T06:46:26.177Z,11.06
2017-05-03T06:48:53.500Z,13.22
2017-05-03T06:51:21.535Z,11.18
2017-05-03T06:53:48.793Z,12.18
2017-05-03T06:56:22.994Z,12.50
2017-05-03T06:58:50.245Z,14.96
2017-05-03T07:01:17.532Z,12.96
2017-05-03T07:03:44.880Z,12.66
2017-05-03T07:06:12.146Z,13.04
2017-05-03T07:08:39.401Z,13.14
2017-05-03T07:11:06.644Z,12.24
2017-05-03T07:13:33.964Z,16.22
2017-05-03T07:16:01.995Z,13.14
2017-05-03T07:18:29.267Z,14.54
2017-05-03T07:20:56.539Z,12.28
2017-05-03T07:23:23.789Z,14.78
2017-05-03T07:25:51.069Z,11.46
2017-05-03T07:28:26.140Z,10.84
2017-05-03T07:30:53.399Z,9.50
2017-05-03T07:33:20.700Z,10.16
2017-05-03T07:35:48.189Z,10.74
2017-05-03T07:38:16.174Z,13.38
2017-05-03T07:40:43.464Z,9.30
2017-05-03T07:43:10.723Z,9.82
2017-05-03T07:45:38.045Z,12.86
2017-05-03T07:48:05.361Z,9.08
2017-05-03T07:50:32.717Z,9.10
2017-05-03T07:53:00.007Z,9.24
2017-05-03T07:55:28.036Z,10.70
2017-05-03T07:57:55.371Z,12.46
2017-05-03T08:00:22.646Z,11.88
2017-05-03T08:02:50.412Z,9.32
2017-05-03T08:05:17.677Z,9.76
2017-05-03T08:07:45.037Z,9.66
2017-05-03T08:10:12.288Z,9.16
2017-05-03T08:12:39.577Z,11.22
2017-05-03T08:15:13.810Z,12.02
2017-05-03T08:17:41.895Z,11.42
2017-05-03T08:20:09.881Z,10.90
2017-05-03T08:22:37.198Z,10.48
2017-05-03T08:25:04.508Z,8.68
2017-05-03T08:27:31.805Z,10.72
2017-05-03T08:29:59.104Z,11.80
2017-05-03T08:32:27.171Z,10.66
2017-05-03T08:34:55.155Z,8.58
2017-05-03T08:37:23.182Z,8.96
2017-05-03T08:39:50.539Z,8.64
2017-05-03T08:42:17.795Z,10.14
2017-05-03T08:44:52.032Z,9.00
2017-05-03T08:47:19.347Z,13.48
2017-05-03T08:49:46.727Z,7.86
2017-05-03T08:52:14.047Z,8.20
2017-05-03T08:54:42.117Z,7.64
2017-05-03T08:57:10.152Z,7.88
2017-05-03T08:59:37.421Z,8.12
2017-05-03T09:02:04.727Z,10.36
2017-05-03T09:04:32.084Z,7.54
2017-05-03T09:06:59.333Z,7.84
2017-05-03T09:09:27.407Z,7.38
2017-05-03T09:11:55.380Z,6.86
2017-05-03T09:14:23.441Z,6.80
2017-05-03T09:16:50.757Z,7.02
2017-05-03T09:19:18.080Z,6.78
2017-05-03T09:21:46.116Z,6.92
2017-05-03T09:24:13.414Z,6.78
2017-05-03T09:26:41.394Z,6.56
2017-05-03T09:29:08.682Z,6.98
2017-05-03T09:31:35.967Z,7.26
2017-05-03T09:34:03.289Z,7.38
2017-05-03T09:36:30.565Z,7.52
2017-05-03T09:39:04.842Z,7.90
2017-05-03T09:41:32.105Z,8.44
2017-05-03T09:43:59.389Z,9.54
2017-05-03T09:46:26.721Z,8.98
2017-05-03T09:48:53.991Z,8.56
2017-05-03T09:51:21.436Z,10.76
2017-05-03T09:53:49.557Z,9.04
2017-05-03T09:56:16.847Z,7.80
2017-05-03T09:58:44.115Z,9.70
2017-05-03T10:01:12.178Z,8.32
2017-05-03T10:03:39.483Z,7.76
2017-05-03T10:06:06.768Z,9.62
2017-05-03T10:08:34.041Z,10.26
2017-05-03T10:11:01.392Z,9.08
2017-05-03T10:13:28.684Z,9.52
2017-05-03T10:15:56.705Z,10.58
2017-05-03T10:18:23.987Z,9.02
2017-05-03T10:20:51.276Z,10.00
2017-05-03T10:23:19.304Z,8.74
2017-05-03T10:25:46.639Z,9.68
2017-05-03T10:28:13.888Z,9.16
2017-05-03T10:30:41.127Z,9.28
2017-05-03T10:33:09.190Z,8.38
2017-05-03T10:35:36.392Z,7.04
2017-05-03T10:38:03.716Z,7.46
2017-05-03T10:40:30.953Z,8.84
2017-05-03T10:42:58.264Z,6.50
2017-05-03T10:45:25.566Z,6.22
2017-05-03T10:47:52.867Z,7.74
2017-05-03T10:50:20.195Z,6.48
2017-05-03T10:52:47.554Z,7.02
2017-05-03T10:55:15.120Z,6.58
2017-05-03T10:57:42.368Z,7.88
2017-05-03T11:00:09.684Z,10.00
2017-05-03T11:02:36.997Z,7.58
2017-05-03T11:05:04.269Z,6.50
2017-05-03T11:07:32.374Z,7.56
2017-05-03T11:09:59.651Z,8.90
2017-05-03T11:12:26.954Z,8.48
2017-05-03T11:14:54.642Z,8.38
2017-05-03T11:17:22.668Z,8.72
2017-05-03T11:19:50.197Z,10.14
2017-05-03T11:22:17.463Z,11.72
2017-05-03T11:24:51.816Z,8.98
2017-05-03T11:27:19.244Z,10.92
2017-05-03T11:29:47.518Z,9.64
2017-05-03T11:32:14.879Z,9.00
2017-05-03T11:34:42.183Z,10.24
2017-05-03T11:37:09.570Z,9.32
2017-05-03T11:39:37.611Z,9.50
2017-05-03T11:42:04.940Z,9.66
2017-05-03T11:44:32.207Z,9.50
2017-05-03T11:46:59.499Z,9.08
2017-05-03T11:49:26.861Z,11.92
2017-05-03T11:51:54.158Z,10.28
2017-05-03T11:54:21.448Z,10.10
2017-05-03T11:56:48.724Z,9.80
2017-05-03T11:59:16.024Z,9.64
2017-05-03T12:01:44.220Z,9.42
2017-05-03T12:04:11.492Z,9.38
2017-05-03T12:06:38.741Z,10.24
2017-05-03T12:09:06.015Z,9.38
2017-05-03T12:11:33.729Z,10.54
2017-05-03T12:14:01.071Z,11.24
2017-05-03T12:16:28.383Z,9.48
2017-05-03T12:18:55.632Z,9.70
2017-05-03T12:21:22.899Z,12.42
2017-05-03T12:23:50.147Z,10.08
2017-05-03T12:26:17.559Z,10.10
2017-05-03T12:28:44.835Z,12.08
2017-05-03T12:31:12.132Z,13.78
2017-05-03T12:33:39.431Z,12.66
2017-05-03T12:36:06.762Z,11.14
2017-05-03T12:38:33.992Z,12.20
2017-05-03T12:41:01.302Z,12.84
2017-05-03T12:43:28.559Z,11.44
2017-05-03T12:45:55.845Z,10.76
2017-05-03T12:48:23.123Z,10.68
2017-05-03T12:50:51.161Z,10.90
2017-05-03T12:53:18.507Z,12.26
2017-05-03T12:55:45.817Z,11.54
2017-05-03T12:58:13.127Z,12.62
2017-05-03T13:00:40.399Z,10.94
2017-05-03T13:03:07.788Z,11.62
2017-05-03T13:05:35.811Z,11.62
2017-05-03T13:08:03.067Z,10.56
2017-05-03T13:10:30.382Z,10.74
2017-05-03T13:12:58.396Z,12.54
2017-05-03T13:15:25.695Z,11.32
2017-05-03T13:17:53.152Z,11.92
2017-05-03T13:20:20.439Z,12.14
2017-05-03T13:22:48.460Z,11.32
2017-05-03T13:25:15.776Z,12.62
2017-05-03T13:27:43.888Z,12.08
2017-05-03T13:30:11.202Z,12.26
2017-05-03T13:32:39.283Z,13.30
2017-05-03T13:35:07.318Z,9.82
2017-05-03T13:37:34.572Z,12.44
2017-05-03T13:40:02.675Z,12.04
2017-05-03T13:42:29.989Z,11.26
2017-05-03T13:44:57.451Z,11.64
2017-05-03T13:47:24.819Z,11.56
2017-05-03T13:49:52.086Z,12.84
2017-05-03T13:52:19.408Z,11.96
2017-05-03T13:54:46.699Z,9.66
2017-05-03T13:57:14.036Z,9.72
2017-05-03T13:59:41.267Z,8.76
2017-05-03T14:02:08.536Z,10.44
2017-05-03T14:04:35.844Z,8.74
2017-05-03T14:07:03.122Z,9.42
2017-05-03T14:09:30.400Z,9.48
2017-05-03T14:11:57.696Z,8.68
2017-05-03T14:14:24.989Z,8.40
2017-05-03T14:16:52.264Z,8.02
2017-05-03T14:19:20.351Z,7.82
2017-05-03T14:21:48.377Z,7.24
2017-05-03T14:24:15.784Z,8.40
2017-05-03T14:26:43.791Z,8.04
2017-05-03T14:29:11.071Z,5.90
2017-05-03T14:31:38.344Z,5.64
2017-05-03T14:34:05.715Z,5.96
2017-05-03T14:36:32.981Z,6.88
2017-05-03T14:39:00.270Z,6.90
2017-05-03T14:41:27.767Z,7.36
2017-05-03T14:43:55.057Z,5.96
2017-05-03T14:46:22.341Z,6.78
2017-05-03T14:48:49.654Z,7.38
2017-05-03T14:51:17.015Z,6.30
2017-05-03T14:53:44.316Z,7.30
2017-05-03T14:56:12.441Z,6.28
2017-05-03T14:58:39.766Z,7.48
2017-05-03T15:01:07.036Z,7.36
2017-05-03T15:03:34.305Z,7.32
2017-05-03T15:06:01.630Z,7.16
2017-05-03T15:08:28.979Z,7.50
2017-05-03T15:10:57.165Z,7.00
2017-05-03T15:13:24.592Z,6.68
2017-05-03T15:15:51.862Z,6.26
2017-05-03T15:18:19.239Z,6.60
2017-05-03T15:20:47.268Z,5.92
2017-05-03T15:23:14.677Z,6.34
2017-05-03T15:25:42.782Z,6.16
2017-05-03T15:28:10.096Z,6.10
2017-05-03T15:30:37.447Z,6.50
2017-05-03T15:33:04.778Z,5.64
2017-05-03T15:35:32.065Z,5.92
2017-05-03T15:37:59.336Z,5.04
2017-05-03T15:40:26.575Z,5.04
2017-05-03T15:42:53.844Z,5.32
2017-05-03T15:45:21.276Z,5.32
2017-05-03T15:47:48.556Z,5.44
2017-05-03T15:50:15.918Z,6.56
2017-05-03T15:52:43.208Z,6.06
2017-05-03T15:55:11.221Z,6.74
2017-05-03T15:57:38.545Z,5.44
2017-05-03T16:00:05.819Z,6.30
2017-05-03T16:02:33.126Z,6.38
2017-05-03T16:05:00.419Z,7.28
2017-05-03T16:07:27.692Z,5.66
2017-05-03T16:09:55.019Z,6.98
2017-05-03T16:12:23.089Z,6.44
2017-05-03T16:14:50.429Z,6.46
2017-05-03T16:17:17.908Z,6.24
2017-05-03T16:19:45.164Z,6.80
2017-05-03T16:22:12.514Z,5.48
2017-05-03T16:24:39.816Z,6.62
2017-05-03T16:27:07.076Z,7.06
2017-05-03T16:29:34.363Z,8.10
2017-05-03T16:32:01.776Z,7.30
2017-05-03T16:34:29.812Z,6.18
2017-05-03T16:36:57.130Z,6.94
2017-05-03T16:39:24.488Z,6.36
2017-05-03T16:41:51.765Z,6.26
2017-05-03T16:44:19.153Z,9.10
2017-05-03T16:46:46.432Z,6.02
2017-05-03T16:49:13.703Z,5.84
2017-05-03T16:51:41.785Z,6.98
2017-05-03T16:54:09.778Z,8.28
2017-05-03T16:56:44.077Z,6.24
2017-05-03T16:59:12.136Z,8.22
2017-05-03T17:01:39.812Z,6.20
2017-05-03T17:04:07.833Z,7.64
2017-05-03T17:06:35.217Z,7.50
2017-05-03T17:09:02.472Z,6.62
2017-05-03T17:11:29.753Z,7.58
2017-05-03T17:13:57.031Z,6.96
2017-05-03T17:16:25.114Z,7.80
2017-05-03T17:18:53.161Z,6.92
2017-05-03T17:21:20.526Z,6.42
2017-05-03T17:23:47.845Z,6.34
2017-05-03T17:26:22.058Z,6.54
2017-05-03T17:28:49.327Z,6.40
2017-05-03T17:31:16.596Z,6.28
2017-05-03T17:33:43.898Z,6.44
2017-05-03T17:36:11.932Z,6.62
2017-05-03T17:38:39.200Z,7.80
2017-05-03T17:41:06.767Z,9.54
2017-05-03T17:43:34.076Z,9.22
2017-05-03T17:46:01.340Z,9.66
2017-05-03T17:48:28.627Z,9.62
2017-05-03T17:50:56.010Z,10.76
2017-05-03T17:53:23.321Z,11.14
2017-05-03T17:55:50.620Z,12.94
2017-05-03T17:58:18.056Z,12.94
2017-05-03T18:00:45.575Z,12.94
2017-05-03T18:03:13.632Z,14.28
2017-05-03T18:05:40.948Z,13.40
2017-05-03T18:08:08.243Z,14.54
2017-05-03T18:10:35.608Z,15.92
2017-05-03T18:13:02.966Z,15.20
2017-05-03T18:15:30.339Z,15.70
2017-05-03T18:17:58.662Z,15.32
2017-05-03T18:20:26.399Z,16.26
2017-05-03T18:22:54.570Z,16.88
2017-05-03T18:25:22.790Z,15.72
2017-05-03T18:27:50.200Z,17.12
2017-05-03T18:30:18.387Z,16.26
2017-05-03T18:32:46.535Z,15.74
2017-05-03T18:35:13.930Z,15.76
2017-05-03T18:37:42.517Z,14.22
2017-05-03T18:40:10.114Z,14.60
2017-05-03T18:42:37.510Z,15.02
2017-05-03T18:45:04.836Z,16.58
2017-05-03T18:47:32.457Z,15.38
2017-05-03T18:50:00.524Z,20.76
2017-05-03T18:52:28.001Z,19.10
2017-05-03T18:54:56.150Z,20.70
2017-05-03T18:57:23.468Z,22.30
2017-05-03T18:59:52.167Z,18.84
2017-05-03T19:02:19.533Z,18.42
2017-05-03T19:04:46.851Z,18.80
2017-05-03T19:07:14.916Z,18.74
2017-05-03T19:09:42.288Z,20.24
2017-05-03T19:12:10.389Z,19.22
2017-05-03T19:14:37.700Z,24.28
2017-05-03T19:17:05.581Z,25.26
2017-05-03T19:19:32.907Z,25.86
2017-05-03T19:22:00.284Z,32.32
2017-05-03T19:24:27.670Z,27.82
2017-05-03T19:26:54.999Z,49.68
2017-05-03T19:29:22.300Z,28.30
2017-05-03T19:31:50.430Z,24.20
2017-05-03T19:34:17.780Z,26.36
2017-05-03T19:36:45.137Z,24.24
2017-05-03T19:39:12.484Z,23.40
2017-05-03T19:41:39.787Z,34.72
2017-05-03T19:44:07.091Z,22.74
2017-05-03T19:46:34.460Z,20.96
2017-05-03T19:49:01.971Z,19.56
2017-05-03T19:51:29.429Z,19.00
2017-05-03T19:53:56.703Z,22.36
2017-05-03T19:56:24.148Z,21.68
2017-05-03T19:58:51.628Z,24.18
2017-05-03T20:01:19.108Z,26.96
2017-05-03T20:03:47.335Z,22.26
2017-05-03T20:06:14.856Z,21.04
2017-05-03T20:08:42.368Z,21.68
2017-05-03T20:11:09.715Z,23.22
2017-05-03T20:13:37.040Z,23.78
2017-05-03T20:16:04.382Z,25.38
2017-05-03T20:18:31.710Z,18.60
2017-05-03T20:20:59.037Z,23.70
2017-05-03T20:23:26.336Z,25.92
2017-05-03T20:25:53.741Z,28.40
2017-05-03T20:28:21.090Z,28.26
2017-05-03T20:30:49.199Z,22.26
2017-05-03T20:33:16.500Z,22.72
2017-05-03T20:35:43.834Z,21.32
2017-05-03T20:38:11.335Z,22.20
2017-05-03T20:40:38.782Z,19.64
2017-05-03T20:43:06.133Z,25.18
2017-05-03T20:45:33.448Z,17.46
2017-05-03T20:48:00.852Z,15.40
2017-05-03T20:50:28.299Z,17.34
2017-05-03T20:52:55.588Z,24.06
2017-05-03T20:55:22.929Z,21.56
2017-05-03T20:57:50.284Z,22.96
2017-05-03T21:00:17.626Z,24.98
2017-05-03T21:02:51.976Z,25.34
2017-05-03T21:05:19.275Z,31.58
2017-05-03T21:07:46.595Z,22.72
2017-05-03T21:10:13.903Z,19.76
2017-05-03T21:12:41.321Z,20.16
2017-05-03T21:15:08.648Z,22.80
2017-05-03T21:17:35.985Z,23.12
2017-05-03T21:20:03.423Z,29.02
2017-05-03T21:22:30.769Z,28.12
2017-05-03T21:24:58.394Z,25.12
2017-05-03T21:27:25.710Z,29.58
2017-05-03T21:29:53.888Z,29.80
2017-05-03T21:32:21.938Z,25.86
2017-05-03T21:34:49.315Z,21.68
2017-05-03T21:37:17.333Z,28.50
2017-05-03T21:39:44.641Z,26.52
2017-05-03T21:42:11.968Z,31.48
2017-05-03T21:44:39.249Z,32.47
2017-05-03T21:47:06.638Z,32.38
2017-05-03T21:49:34.775Z,34.10
2017-05-03T21:52:02.276Z,32.23
2017-05-03T21:54:30.336Z,28.48
2017-05-03T21:56:57.638Z,22.82
2017-05-03T21:59:24.967Z,23.78
2017-05-03T22:01:52.984Z,28.48
2017-05-03T22:04:20.305Z,28.32
2017-05-03T22:06:48.398Z,29.60
2017-05-03T22:09:15.699Z,24.72
2017-05-03T22:11:43.004Z,24.30
2017-05-03T22:14:11.067Z,29.80
2017-05-03T22:16:39.096Z,27.87
2017-05-03T22:19:06.348Z,26.37
2017-05-03T22:21:33.773Z,26.66
2017-05-03T22:24:01.807Z,22.36
2017-05-03T22:26:29.201Z,22.45
2017-05-03T22:28:57.244Z,19.25
2017-05-03T22:31:24.627Z,20.15
2017-05-03T22:33:51.925Z,24.45
2017-05-03T22:36:19.263Z,32.05
2017-05-03T22:38:47.284Z,40.56
2017-05-03T22:41:14.650Z,44.40
2017-05-03T22:43:41.927Z,33.62
2017-05-03T22:46:09.216Z,30.07
2017-05-03T22:48:37.212Z,27.75
2017-05-03T22:51:04.556Z,24.18
2017-05-03T22:53:31.885Z,22.37
2017-05-03T22:55:59.316Z,20.32
2017-05-03T22:58:26.592Z,23.28
2017-05-03T23:00:53.836Z,23.68
2017-05-03T23:03:21.096Z,22.90
2017-05-03T23:05:48.352Z,23.63
2017-05-03T23:08:15.669Z,21.87
2017-05-03T23:10:42.943Z,19.75
2017-05-03T23:13:10.211Z,21.10
2017-05-03T23:15:37.581Z,23.58
2017-05-03T23:18:04.876Z,20.02
2017-05-03T23:20:32.213Z,20.78
2017-05-03T23:22:59.511Z,22.93
2017-05-03T23:25:27.579Z,24.77
2017-05-03T23:27:54.861Z,19.30
2017-05-03T23:30:22.183Z,20.37
2017-05-03T23:32:49.604Z,19.22
2017-05-03T23:35:16.892Z,23.57
2017-05-03T23:37:44.168Z,22.47
2017-05-03T23:40:11.627Z,18.98
2017-05-03T23:42:38.896Z,21.57
2017-05-03T23:45:06.263Z,17.37
2017-05-03T23:47:34.295Z,18.33
2017-05-03T23:50:01.655Z,29.10
2017-05-03T23:52:28.897Z,25.93
2017-05-03T23:55:03.251Z,29.00
2017-05-03T23:57:30.557Z,34.03
2017-05-03T23:59:57.855Z,33.52
